• Join FlightAware (Why Join?)
  • Login
  • US Flag 
11:57AM EDT


 

Airport Tracker/Info


-or-


 

Live Flight TrackerFlight Track Log ✈ VH-VQB ✈ 14-Apr-2013 ✈ YMML / MEL - YMLT / LST

Flight Track Log - Related Links

Times and Time Zones

All times are in EDT time to prevent confusion due to time zone crossing. See the VH-VQB flight status page for this flight to view local times or setup timezone preferences in your user account.

Time Position Orientation Groundspeed Altitude Reporting Facility
EDT Latitude Longitude Course Direction KTS MPH feet Rate Location/Type
04:29AM -37.6588 144.7966 274° West 150 173 1,800  Level Aus ATC (RADAR)
04:30AM -37.6551 144.7367 274° West 210 242 2,600 1,080 Climbing Aus ATC (RADAR)
04:30AM -37.6563 144.7144 266° West 231 266 3,000 1,740 Climbing Aus ATC (RADAR)
04:31AM -37.6760 144.6860 220° Southwest 293 337 3,800 1,680 Climbing FlightAware
04:31AM -37.6910 144.6770 220° Southwest 291 335 4,000 1,560 Climbing Aus ATC (RADAR)
04:31AM -37.6960 144.6770 200° South 315 362 4,200 2,460 Climbing FlightAware
04:31AM -37.7340 144.6820 174° South 326 375 5,300 2,520 Climbing FlightAware
04:31AM -37.7500 144.6860 169° South 342 394 5,700 1,920 Climbing FlightAware
04:32AM -37.7926 144.6959 169° South 354 407 6,400 2,040 Climbing Aus ATC (RADAR)
04:32AM -37.8060 144.6990 169° South 365 420 6,900 3,780 Climbing FlightAware
04:32AM -37.8500 144.7100 169° South 363 418 8,700 3,900 Climbing FlightAware
04:33AM -37.9240 144.7370 164° South 351 404 11,500 3,960 Climbing FlightAware
04:34AM -37.9617 144.7561 164° South 353 406 13,300 4,380 Climbing Aus ATC (RADAR)
04:34AM -37.9690 144.7600 164° South 332 382 13,700 2,700 Climbing FlightAware
04:34AM -38.0127 144.7814 164° South 341 392 14,900 1,740 Climbing Aus ATC (RADAR)
04:35AM -38.0500 144.8000 164° South 365 420 15,300 840 Climbing FlightAware
04:35AM -38.1021 144.8253 164° South 383 441 15,700 900 Climbing Aus ATC (RADAR)
04:35AM -38.1190 144.8340 164° South 412 474 15,900 1,020 Climbing FlightAware
04:36AM -38.1653 144.8568 164° South 417 480 16,300 1,200 Climbing Aus ATC (RADAR)
04:36AM -38.1910 144.8700 164° South 430 495 16,700 1,620 Climbing FlightAware
04:37AM -38.2760 144.9130 158° South 452 520 18,000 1,920 Climbing FlightAware
04:37AM -38.3550 144.9530 158° South 451 519 19,500 1,860 Climbing FlightAware
04:38AM -38.4470 145.0000 158° South 467 537 20,700 1,500 Climbing FlightAware
04:39AM -38.5570 145.0550 159° South 472 543 22,000 1,380 Climbing FlightAware
04:40AM -38.6430 145.0990 158° South 482 555 22,900 1,380 Climbing FlightAware
04:40AM -38.7370 145.1470 158° South 488 562 24,000 1,320 Climbing FlightAware
04:41AM -38.8030 145.1800 159° South 501 577 24,600 1,500 Climbing FlightAware
04:42AM -38.8781 145.2184 159° South 496 571 25,600 1,800 Climbing Aus ATC (RADAR)
04:42AM -38.9090 145.2350 159° South 490 564 26,100 1,500 Climbing FlightAware
04:42AM -38.9528 145.2560 159° South 493 567 26,500 1,440 Climbing Aus ATC (RADAR)
04:42AM -38.9846 145.2727 158° South 492 566 26,900 1,080 Climbing Aus ATC (RADAR)
04:43AM -39.0050 145.2840 158° South 485 558 27,000  Climbing FlightAware
04:43AM -39.0586 145.3105 158° South 487 560 26,900  Descending Aus ATC (RADAR)
04:43AM -39.0910 145.3280 158° South 487 560 27,000  Climbing FlightAware
04:44AM -39.1755 145.3706 158° South 489 563 26,900  Descending Aus ATC (RADAR)
04:44AM -39.1860 145.3770 158° South 492 566 27,000  Climbing FlightAware
04:44AM -39.2476 145.4197 158° South 496 571 26,900  Descending Aus ATC (RADAR)
04:45AM -39.2580 145.4290 158° South 504 580 27,000  Climbing FlightAware
04:45AM -39.3575 145.5042 158° South 495 570 26,900  Descending Aus ATC (RADAR)
04:46AM -39.4000 145.5370 158° South 505 581 27,000 60 Climbing FlightAware
04:46AM -39.4840 145.6000 150° Southeast 506 582 27,000  Level FlightAware
04:47AM -39.5750 145.6690 150° Southeast 507 583 27,000  Level FlightAware
04:48AM -39.6560 145.7300 150° Southeast 507 583 27,000  Level FlightAware
04:49AM -39.7430 145.7970 149° Southeast 507 583 27,000 -120 Level FlightAware
04:49AM -39.8006 145.8424 149° Southeast 497 572 26,900  Descending Aus ATC (RADAR)
04:49AM -39.8260 145.8600 149° Southeast 504 580 27,000  Climbing FlightAware
04:50AM -39.8724 145.8919 149° Southeast 494 568 26,900  Descending Aus ATC (RADAR)
04:50AM -39.9060 145.9210 149° Southeast 506 582 27,000  Climbing FlightAware
04:51AM -39.9826 145.9789 149° Southeast 498 573 26,900  Descending Aus ATC (RADAR)
04:51AM -40.0010 145.9940 149° Southeast 506 582 27,000  Climbing FlightAware
04:51AM -40.0533 146.0322 149° Southeast 498 573 26,900  Descending Aus ATC (RADAR)
04:51AM -40.0580 146.0380 149° Southeast 508 585 27,000 120 Climbing FlightAware
04:52AM -40.1410 146.1020 149° Southeast 503 579 27,000 -360 Level FlightAware
04:52AM -40.1852 146.1329 149° Southeast 498 573 26,700 -1,200 Descending Aus ATC (RADAR)
04:53AM -40.2210 146.1640 149° Southeast 491 565 26,200 -2,040 Descending FlightAware
04:53AM -40.2826 146.2111 149° Southeast 480 552 25,000 -2,280 Descending Aus ATC (RADAR)
04:53AM -40.3100 146.2340 149° Southeast 475 547 24,500 -1,680 Descending FlightAware
04:54AM -40.3810 146.2890 149° Southeast 464 534 23,400 -1,920 Descending FlightAware
04:55AM -40.4589 146.3474 149° Southeast 442 509 22,100 -1,800 Descending Aus ATC (RADAR)
04:55AM -40.4550 146.3470 149° Southeast 446 513 22,200 -2,040 Climbing FlightAware
04:55AM -40.5340 146.4080 150° Southeast 435 501 20,500 -2,520 Descending FlightAware
04:56AM -40.6040 146.4630 149° Southeast 431 496 18,700 -2,400 Descending FlightAware
04:57AM -40.6830 146.5250 149° Southeast 418 481 17,100 -2,160 Descending FlightAware
04:57AM -40.7331 146.5650 149° Southeast 410 472 16,200 -1,680 Descending Aus ATC (RADAR)
04:57AM -40.7470 146.5760 149° Southeast 409 471 16,000 -2,280 Descending FlightAware
04:58AM -40.8127 146.6276 149° Southeast 387 445 14,300 -2,580 Descending Aus ATC (RADAR)
04:58AM -40.8190 146.6330 149° Southeast 400 460 14,100 -1,620 Descending FlightAware
04:59AM -40.8830 146.6840 149° Southeast 395 455 13,000 -1,620 Descending FlightAware
04:59AM -40.9157 146.7097 149° Southeast 384 442 12,600 -1,080 Descending Aus ATC (RADAR)
05:00AM -40.9440 146.7320 149° Southeast 373 429 12,300 -960 Descending FlightAware
05:00AM -41.0100 146.7840 149° Southeast 339 390 11,500 -960 Descending FlightAware
05:01AM -41.0600 146.8250 148° Southeast 316 364 11,000 -1,380 Descending FlightAware
05:01AM -41.0990 146.8550 150° Southeast 303 349 9,900 -1,860 Descending FlightAware
05:02AM -41.1280 146.8780 149° Southeast 303 349 9,300 -1,320 Descending FlightAware
05:02AM -41.1650 146.9080 149° Southeast 301 346 8,700 -1,380 Descending FlightAware
05:03AM -41.1840 146.9230 149° Southeast 290 334 8,300 -1,380 Descending FlightAware
05:03AM -41.2120 146.9460 148° Southeast 288 331 7,800 -1,620 Descending FlightAware
05:03AM -41.2413 146.9692 148° Southeast 285 328 7,100 -1,440 Descending Aus ATC (RADAR)
05:04AM -41.2460 146.9730 148° Southeast 282 325 7,100 -1,080 Level FlightAware
05:04AM -41.2800 147.0010 148° Southeast 283 326 6,400 -1,560 Descending FlightAware
05:04AM -41.3089 147.0233 148° Southeast 274 315 5,800 -1,200 Descending Aus ATC (RADAR)
05:04AM -41.3080 147.0230 148° Southeast 270 311 5,900 -720 Climbing FlightAware
05:05AM -41.3400 147.0480 150° Southeast 268 308 5,400 -1,200 Descending FlightAware
05:05AM -41.3550 147.0600 149° Southeast 268 308 5,000 -1,080 Descending FlightAware
05:06AM -41.3820 147.0830 147° Southeast 245 282 4,700 -900 Descending FlightAware
05:06AM -41.4021 147.0989 147° Southeast 248 285 4,400 -840 Descending Aus ATC (RADAR)
05:06AM -41.4120 147.1070 147° Southeast 231 266 4,300 -420 Descending FlightAware
05:06AM -41.4240 147.1170 148° Southeast 228 262 4,200 -1,020 Descending FlightAware
05:07AM -41.4473 147.1352 148° Southeast 223 257 3,700 -960 Descending Aus ATC (RADAR)
05:07AM -41.4440 147.1330 148° Southeast 226 260 3,800 -540 Climbing FlightAware
05:07AM -41.4710 147.1550 149° Southeast 207 238 3,400 -900 Descending FlightAware
05:08AM -41.5090 147.1700 164° South 194 223 2,800 -1,020 Descending FlightAware
05:08AM -41.5210 147.1690 184° South 192 221 2,500 -840 Descending FlightAware
05:09AM -41.5500 147.1720 176° South 198 228 2,200 -480 Descending FlightAware
05:09AM -41.5720 147.1798 176° South 187 215 2,100  Descending Aus ATC (RADAR)
05:09AM -41.5730 147.1820 176° South 201 231 2,200 120 Climbing FlightAware
05:10AM -41.5970 147.2040 146° Southeast 194 223 2,200 -180 Level FlightAware
05:10AM -41.6010 147.2110 127° Southeast 192 221 2,100 -600 Descending FlightAware
05:10AM -41.6040 147.2230 108° East 179 206 2,000 -600 Descending FlightAware
05:10AM -41.5980 147.2410 66° East 153 176 1,800 -720 Descending FlightAware
05:11AM -41.5890 147.2460 23° Northeast 144 166 1,600 -900 Descending FlightAware
05:11AM -41.5780 147.2390 335° Northwest 134 154 1,300 -1,080 Descending FlightAware
05:11AM -41.5646 147.2271 335° Northwest 136 157 900  Descending Aus ATC (RADAR)
05:11AM -41.5660 147.2280 335° Northwest 134 154 1,300 -780 Climbing FlightAware
05:12AM -41.5439 147.2100 335° Northwest 132 152 400 -1,560 Descending Aus ATC (RADAR)